createdAt,value
2023-02-26T00:00:16.474Z,98350.50
2023-02-26T00:02:49.042Z,98346.13
2023-02-26T00:05:18.390Z,98352.50
2023-02-26T00:07:47.235Z,98351.69
2023-02-26T00:10:17.528Z,98352.59
2023-02-26T00:12:47.502Z,98361.03
2023-02-26T00:15:18.450Z,98363.06
2023-02-26T00:17:57.914Z,98365.56
2023-02-26T00:20:27.728Z,98363.31
2023-02-26T00:22:57.249Z,98367.31
2023-02-26T00:25:27.737Z,98373.59
2023-02-26T00:27:57.184Z,98371.78
2023-02-26T00:30:26.889Z,98374.66
2023-02-26T00:32:56.367Z,98385.03
2023-02-26T00:35:26.472Z,98384.19
2023-02-26T00:38:03.715Z,98389.94
2023-02-26T00:40:46.041Z,98391.41
2023-02-26T00:43:20.826Z,98394.28
2023-02-26T00:46:02.943Z,98389.41
2023-02-26T00:48:54.089Z,98392.38
2023-02-26T00:51:34.681Z,98395.41
2023-02-26T00:54:13.981Z,98398.31
2023-02-26T00:56:44.167Z,98396.69
2023-02-26T00:59:12.921Z,98399.03
2023-02-26T01:01:46.285Z,98388.03
2023-02-26T01:04:17.218Z,98393.94
2023-02-26T01:06:49.662Z,98393.94
2023-02-26T01:09:27.008Z,98404.09
2023-02-26T01:12:01.685Z,98396.84
2023-02-26T01:14:32.270Z,98403.13
2023-02-26T01:17:09.740Z,98403.59
2023-02-26T01:19:48.178Z,98396.69
2023-02-26T01:22:23.414Z,98407.03
2023-02-26T01:25:10.354Z,98401.75
2023-02-26T01:27:41.529Z,98404.41
2023-02-26T01:30:12.036Z,98405.31
2023-02-26T01:32:47.894Z,98404.47
2023-02-26T01:35:33.843Z,98414.47
2023-02-26T01:38:10.598Z,98404.78
2023-02-26T01:41:26.704Z,98408.69
2023-02-26T01:44:10.976Z,98410.66
2023-02-26T01:46:59.121Z,98412.56
2023-02-26T01:49:29.121Z,98411.94
2023-02-26T01:52:01.479Z,98415.94
2023-02-26T01:54:33.687Z,98421.59
2023-02-26T01:57:08.986Z,98420.78
2023-02-26T01:59:43.799Z,98418.56
2023-02-26T02:02:17.646Z,98427.22
2023-02-26T02:04:47.785Z,98426.47
2023-02-26T02:07:17.622Z,98434.47
2023-02-26T02:09:48.685Z,98435.38
2023-02-26T02:12:36.403Z,98440.66
2023-02-26T02:15:18.007Z,98447.19
2023-02-26T02:17:54.670Z,98444.91
2023-02-26T02:21:20.895Z,98451.16
2023-02-26T02:23:59.322Z,98457.34
2023-02-26T02:26:55.004Z,98459.00
2023-02-26T02:30:24.092Z,98458.91
2023-02-26T02:33:01.358Z,98466.25
2023-02-26T02:35:37.562Z,98474.44
2023-02-26T02:38:13.168Z,98468.78
2023-02-26T02:40:49.215Z,98476.44
2023-02-26T02:43:22.312Z,98493.50
2023-02-26T02:45:57.163Z,98491.88
2023-02-26T02:48:34.431Z,98498.25
2023-02-26T02:51:11.296Z,98506.50
2023-02-26T02:53:48.753Z,98502.69
2023-02-26T02:56:23.213Z,98511.22
2023-02-26T02:58:59.864Z,98507.34
2023-02-26T03:01:30.766Z,98514.88
2023-02-26T03:04:08.966Z,98515.78
2023-02-26T03:06:39.097Z,98522.78
2023-02-26T03:09:11.160Z,98526.94
2023-02-26T03:11:44.573Z,98524.94
2023-02-26T03:14:16.664Z,98536.13
2023-02-26T03:17:10.667Z,98532.03
2023-02-26T03:20:01.025Z,98535.47
2023-02-26T03:22:41.456Z,98536.09
2023-02-26T03:25:26.100Z,98544.66
2023-02-26T03:28:09.090Z,98550.13
2023-02-26T03:30:46.649Z,98554.31
2023-02-26T03:33:25.089Z,98559.38
2023-02-26T03:36:02.285Z,98561.28
2023-02-26T03:38:39.411Z,98568.91
2023-02-26T03:41:15.844Z,98577.81
2023-02-26T03:43:51.336Z,98580.47
2023-02-26T03:46:28.756Z,98576.81
2023-02-26T03:49:06.513Z,98587.09
2023-02-26T03:51:39.921Z,98595.63
2023-02-26T03:54:44.819Z,98602.19
2023-02-26T03:57:33.760Z,98598.72
2023-02-26T04:00:19.804Z,98605.91
2023-02-26T04:03:00.468Z,98598.19
2023-02-26T04:05:34.595Z,98609.38
2023-02-26T04:08:05.607Z,98611.66
2023-02-26T04:10:44.057Z,98615.72
2023-02-26T04:13:12.965Z,98618.53
2023-02-26T04:15:41.712Z,98618.53
2023-02-26T04:18:10.880Z,98623.72
2023-02-26T04:20:39.566Z,98636.00
2023-02-26T04:23:09.863Z,98633.09
2023-02-26T04:25:39.091Z,98642.25
2023-02-26T04:28:08.830Z,98635.44
2023-02-26T04:30:37.798Z,98641.44
2023-02-26T04:33:08.762Z,98649.38
2023-02-26T04:35:38.417Z,98653.03
2023-02-26T04:38:08.879Z,98650.34
2023-02-26T04:40:37.947Z,98650.50
2023-02-26T04:43:10.326Z,98649.50
2023-02-26T04:45:47.801Z,98664.59
2023-02-26T04:48:17.394Z,98663.31
2023-02-26T04:50:47.497Z,98659.22
2023-02-26T04:53:17.801Z,98666.16
2023-02-26T04:55:51.967Z,98681.59
2023-02-26T04:58:24.437Z,98675.31
2023-02-26T05:00:55.514Z,98688.50
2023-02-26T05:03:24.588Z,98684.84
2023-02-26T05:05:53.482Z,98695.88
2023-02-26T05:08:26.276Z,98695.88
2023-02-26T05:10:55.292Z,98696.69
2023-02-26T05:13:23.997Z,98697.88
2023-02-26T05:15:55.029Z,98702.31
2023-02-26T05:18:24.878Z,98705.59
2023-02-26T05:20:56.268Z,98705.59
2023-02-26T05:23:27.080Z,98709.22
2023-02-26T05:25:58.427Z,98705.47
2023-02-26T05:28:28.531Z,98709.56
2023-02-26T05:30:59.206Z,98716.75
2023-02-26T05:33:28.523Z,98722.56
2023-02-26T05:35:57.982Z,98721.91
2023-02-26T05:38:28.180Z,98726.78
2023-02-26T05:40:59.225Z,98731.47
2023-02-26T05:43:28.786Z,98732.66
2023-02-26T05:45:58.220Z,98744.94
2023-02-26T05:48:27.132Z,98741.28
2023-02-26T05:50:55.944Z,98752.53
2023-02-26T05:53:28.246Z,98758.50
2023-02-26T05:55:59.239Z,98760.44
2023-02-26T05:58:28.086Z,98768.22
2023-02-26T06:00:56.872Z,98764.25
2023-02-26T06:03:25.829Z,98771.75
2023-02-26T06:05:54.754Z,98773.72
2023-02-26T06:08:23.481Z,98788.28
2023-02-26T06:10:53.763Z,98786.75
2023-02-26T06:13:24.527Z,98785.09
2023-02-26T06:15:53.821Z,98795.31
2023-02-26T06:18:24.440Z,98793.00
2023-02-26T06:20:53.407Z,98801.44
2023-02-26T06:23:22.548Z,98800.75
2023-02-26T06:25:54.730Z,98812.22
2023-02-26T06:28:24.623Z,98815.56
2023-02-26T06:30:59.999Z,98830.06
2023-02-26T06:33:32.508Z,98823.66
2023-02-26T06:36:01.285Z,98829.25
2023-02-26T06:38:30.276Z,98829.38
2023-02-26T06:41:00.387Z,98841.28
2023-02-26T06:43:29.442Z,98846.19
2023-02-26T06:46:00.664Z,98843.22
2023-02-26T06:48:30.245Z,98846.13
2023-02-26T06:50:59.360Z,98848.50
2023-02-26T06:53:28.400Z,98856.78
2023-02-26T06:55:57.310Z,98857.09
2023-02-26T06:58:27.580Z,98867.09
2023-02-26T07:01:01.546Z,98873.50
2023-02-26T07:03:36.264Z,98869.56
2023-02-26T07:06:25.921Z,98877.47
2023-02-26T07:09:00.229Z,98883.41
2023-02-26T07:11:34.116Z,98885.53
2023-02-26T07:14:04.668Z,98894.56
2023-02-26T07:16:33.423Z,98899.00
2023-02-26T07:19:03.448Z,98904.44
2023-02-26T07:21:32.769Z,98903.59
2023-02-26T07:24:02.071Z,98912.00
2023-02-26T07:26:30.857Z,98918.22
2023-02-26T07:28:59.718Z,98922.31
2023-02-26T07:31:29.921Z,98925.13
2023-02-26T07:33:58.898Z,98927.47
2023-02-26T07:36:28.152Z,98932.72
2023-02-26T07:38:58.187Z,98941.13
2023-02-26T07:41:27.278Z,98927.31
2023-02-26T07:43:56.261Z,98936.66
2023-02-26T07:46:32.199Z,98934.72
2023-02-26T07:49:02.599Z,98939.94
2023-02-26T07:51:32.647Z,98936.03
2023-02-26T07:54:02.095Z,98950.50
2023-02-26T07:56:32.425Z,98954.75
2023-02-26T07:59:01.608Z,98954.75
2023-02-26T08:01:35.127Z,98953.75
2023-02-26T08:04:06.033Z,98956.16
2023-02-26T08:06:36.649Z,98958.81
2023-02-26T08:09:10.074Z,98961.28
2023-02-26T08:11:43.299Z,98967.88
2023-02-26T08:14:14.243Z,98968.66
2023-02-26T08:16:45.366Z,98975.09
2023-02-26T08:19:16.273Z,98984.94
2023-02-26T08:21:46.587Z,98985.31
2023-02-26T08:24:15.809Z,98988.22
2023-02-26T08:26:46.977Z,98984.63
2023-02-26T08:29:15.958Z,98989.88
2023-02-26T08:31:46.180Z,98994.81
2023-02-26T08:34:14.847Z,98998.06
2023-02-26T08:36:47.586Z,99005.78
2023-02-26T08:39:16.750Z,99009.91
2023-02-26T08:41:45.570Z,99015.13
2023-02-26T08:44:14.328Z,99015.94
2023-02-26T08:46:43.564Z,99025.31
2023-02-26T08:49:16.742Z,99030.84
2023-02-26T08:51:47.011Z,99033.94
2023-02-26T08:54:16.042Z,99039.75
2023-02-26T08:56:44.766Z,99039.41
2023-02-26T08:59:13.711Z,99034.31
2023-02-26T09:01:43.360Z,99046.75
2023-02-26T09:04:12.461Z,99046.91
2023-02-26T09:06:45.763Z,99042.34
2023-02-26T09:09:14.708Z,99056.19
2023-02-26T09:11:43.794Z,99060.75
2023-02-26T09:14:12.888Z,99058.19
2023-02-26T09:16:42.325Z,99066.44
2023-02-26T09:19:12.131Z,99072.38
2023-02-26T09:21:41.856Z,99076.69
2023-02-26T09:24:15.219Z,99085.63
2023-02-26T09:26:44.259Z,99090.25
2023-02-26T09:29:16.729Z,99082.94
2023-02-26T09:31:47.286Z,99098.59
2023-02-26T09:34:16.378Z,99096.31
2023-02-26T09:36:46.593Z,99098.63
2023-02-26T09:39:16.886Z,99100.09
2023-02-26T09:41:51.519Z,99109.66
2023-02-26T09:44:26.476Z,99111.84
2023-02-26T09:47:06.413Z,99106.06
2023-02-26T09:49:55.747Z,99119.88
2023-02-26T09:52:31.783Z,99111.66
2023-02-26T09:55:11.359Z,99121.91
2023-02-26T09:57:46.420Z,99122.41
2023-02-26T10:00:30.121Z,99117.53
2023-02-26T10:03:23.005Z,99126.53
2023-02-26T10:06:25.365Z,99138.06
2023-02-26T10:09:32.208Z,99131.41
2023-02-26T10:12:09.192Z,99144.34
2023-02-26T10:14:45.597Z,99141.28
2023-02-26T10:17:24.350Z,99150.50
2023-02-26T10:19:59.193Z,99153.84
2023-02-26T10:22:35.971Z,99151.56
2023-02-26T10:25:14.029Z,99164.13
2023-02-26T10:27:58.209Z,99163.50
2023-02-26T10:30:38.830Z,99171.53
2023-02-26T10:33:23.448Z,99167.69
2023-02-26T10:35:59.977Z,99177.00
2023-02-26T10:38:33.175Z,99180.63
2023-02-26T10:41:08.188Z,99180.28
2023-02-26T10:43:45.067Z,99187.44
2023-02-26T10:46:32.572Z,99190.03
2023-02-26T10:49:31.220Z,99191.56
2023-02-26T10:52:14.904Z,99191.16
2023-02-26T10:55:02.162Z,99195.31
2023-02-26T10:57:37.137Z,99195.63
2023-02-26T11:00:19.561Z,99196.75
2023-02-26T11:02:52.041Z,99202.25
2023-02-26T11:05:25.638Z,99200.00
2023-02-26T11:10:51.891Z,99205.06
2023-02-26T11:13:23.706Z,99199.56
2023-02-26T11:15:54.576Z,99195.44
2023-02-26T11:20:43.694Z,99200.00
2023-02-26T11:23:20.087Z,99203.38
2023-02-26T11:26:03.945Z,99196.19
2023-02-26T11:28:44.487Z,99202.94
2023-02-26T11:31:21.337Z,99206.28
2023-02-26T11:33:55.894Z,99213.63
2023-02-26T11:36:33.590Z,99214.00
2023-02-26T11:39:09.157Z,99213.91
2023-02-26T11:41:41.489Z,99213.72
2023-02-26T11:44:18.713Z,99208.78
2023-02-26T11:46:55.496Z,99209.34
2023-02-26T11:49:29.090Z,99215.63
2023-02-26T11:52:20.841Z,99210.88
2023-02-26T11:54:56.643Z,99203.34
2023-02-26T11:57:29.580Z,99212.94
2023-02-26T12:00:02.759Z,99207.41
2023-02-26T12:02:44.261Z,99206.59
2023-02-26T12:05:18.601Z,99207.59
2023-02-26T12:07:49.246Z,99207.16
2023-02-26T12:10:28.314Z,99210.06
2023-02-26T12:13:13.135Z,99213.56
2023-02-26T12:16:00.420Z,99211.16
2023-02-26T12:18:46.026Z,99209.03
2023-02-26T12:21:46.131Z,99223.66
2023-02-26T12:24:53.514Z,99219.00
2023-02-26T12:27:43.312Z,99218.81
2023-02-26T12:30:41.733Z,99218.47
2023-02-26T12:33:29.983Z,99229.34
2023-02-26T12:36:17.737Z,99229.72
2023-02-26T12:39:12.993Z,99233.44
2023-02-26T12:42:20.245Z,99230.59
2023-02-26T12:45:28.158Z,99226.94
2023-02-26T12:48:25.648Z,99229.81
2023-02-26T12:51:08.939Z,99233.19
2023-02-26T12:54:16.494Z,99243.28
2023-02-26T12:57:18.459Z,99250.03
2023-02-26T13:00:20.772Z,99250.66
2023-02-26T13:03:35.210Z,99255.78
2023-02-26T13:06:56.815Z,99259.41
2023-02-26T13:09:42.910Z,99262.75
2023-02-26T13:12:34.550Z,99264.03
2023-02-26T13:15:28.121Z,99265.53
2023-02-26T13:18:06.658Z,99262.69
2023-02-26T13:20:39.215Z,99267.47
2023-02-26T13:23:19.661Z,99267.09
2023-02-26T13:25:56.129Z,99265.66
2023-02-26T13:28:42.215Z,99268.91
2023-02-26T13:31:18.033Z,99271.31
2023-02-26T13:33:51.794Z,99267.84
2023-02-26T13:36:28.724Z,99267.59
2023-02-26T13:39:29.273Z,99270.44
2023-02-26T13:42:08.199Z,99275.91
2023-02-26T13:44:57.344Z,99285.75
2023-02-26T13:47:49.662Z,99283.63
2023-02-26T13:50:38.004Z,99285.38
2023-02-26T13:53:55.483Z,99279.59
2023-02-26T13:56:44.982Z,99289.44
2023-02-26T13:59:54.530Z,99296.59
2023-02-26T14:02:49.351Z,99309.06
2023-02-26T14:05:51.334Z,99307.34
2023-02-26T14:08:49.927Z,99304.78
2023-02-26T14:11:43.786Z,99303.59
2023-02-26T14:14:31.099Z,99307.19
2023-02-26T14:17:37.462Z,99313.44
2023-02-26T14:20:28.134Z,99305.78
2023-02-26T14:23:37.266Z,99310.72
2023-02-26T14:26:18.697Z,99308.78
2023-02-26T14:28:59.289Z,99301.63
2023-02-26T14:31:51.705Z,99308.13
2023-02-26T14:34:27.246Z,99310.31
2023-02-26T14:37:01.426Z,99309.06
2023-02-26T14:39:37.985Z,99307.72
2023-02-26T14:42:13.890Z,99305.94
2023-02-26T14:44:47.841Z,99303.50
2023-02-26T14:47:18.146Z,99303.50
2023-02-26T14:49:54.374Z,99305.53
2023-02-26T14:52:58.829Z,99310.63
2023-02-26T14:55:47.693Z,99315.78
2023-02-26T14:59:01.516Z,99323.22
2023-02-26T15:01:48.099Z,99322.34
2023-02-26T15:04:39.885Z,99323.50
2023-02-26T15:07:35.657Z,99326.88
2023-02-26T15:10:27.341Z,99319.13
2023-02-26T15:13:25.286Z,99324.00
2023-02-26T15:15:59.770Z,99323.41
2023-02-26T15:18:57.690Z,99325.75
2023-02-26T15:21:40.146Z,99329.88
2023-02-26T15:24:16.800Z,99331.53
2023-02-26T15:26:50.678Z,99326.50
2023-02-26T15:29:25.498Z,99327.53
2023-02-26T15:32:01.249Z,99333.50
2023-02-26T15:34:31.101Z,99333.88
2023-02-26T15:43:52.397Z,99350.34
2023-02-26T15:46:29.133Z,99350.84
2023-02-26T15:49:05.633Z,99350.16
2023-02-26T15:51:34.036Z,99351.16
2023-02-26T15:54:03.113Z,99355.66
2023-02-26T15:56:36.031Z,99360.31
2023-02-26T16:02:16.297Z,99361.44
2023-02-26T16:04:46.060Z,99359.78
2023-02-26T16:07:15.726Z,99362.75
2023-02-26T16:09:51.451Z,99362.63
2023-02-26T16:12:24.691Z,99370.06
2023-02-26T16:15:01.097Z,99363.25
2023-02-26T16:17:35.787Z,99363.94
2023-02-26T16:20:15.583Z,99361.19
2023-02-26T16:22:51.117Z,99367.50
2023-02-26T16:25:27.712Z,99375.66
2023-02-26T16:28:05.493Z,99372.41
2023-02-26T16:30:38.374Z,99374.19
2023-02-26T16:33:17.489Z,99384.25
2023-02-26T16:35:50.794Z,99388.88
2023-02-26T16:38:23.998Z,99394.97
2023-02-26T16:41:01.016Z,99397.84
2023-02-26T16:43:58.266Z,99396.81
2023-02-26T16:46:42.767Z,99403.25
2023-02-26T16:49:23.956Z,99410.84
2023-02-26T16:52:00.518Z,99416.13
2023-02-26T16:54:35.837Z,99423.44
2023-02-26T16:57:14.904Z,99432.72
2023-02-26T16:59:57.969Z,99437.19
2023-02-26T17:02:33.762Z,99440.94
2023-02-26T17:05:11.673Z,99456.50
2023-02-26T17:07:56.104Z,99454.53
2023-02-26T17:10:39.925Z,99456.03
2023-02-26T17:13:19.193Z,99467.56
2023-02-26T17:15:51.391Z,99463.63
2023-02-26T17:18:21.212Z,99468.22
2023-02-26T17:20:53.354Z,99472.69
2023-02-26T17:23:32.972Z,99475.97
2023-02-26T17:26:04.787Z,99476.34
2023-02-26T17:28:40.009Z,99486.88
2023-02-26T17:31:11.749Z,99484.59
2023-02-26T17:33:44.756Z,99483.75
2023-02-26T17:36:21.938Z,99486.88
2023-02-26T17:38:52.782Z,99491.53
2023-02-26T17:41:24.946Z,99498.13
2023-02-26T17:43:57.151Z,99498.59
2023-02-26T17:46:29.548Z,99505.69
2023-02-26T17:48:59.845Z,99506.03
2023-02-26T17:51:32.261Z,99506.69
2023-02-26T17:54:07.236Z,99515.28
2023-02-26T17:56:40.413Z,99526.34
2023-02-26T17:59:14.142Z,99522.53
2023-02-26T18:01:45.137Z,99524.53
2023-02-26T18:04:21.468Z,99526.69
2023-02-26T18:06:54.418Z,99529.28
2023-02-26T18:09:25.672Z,99535.09
2023-02-26T18:11:57.624Z,99532.44
2023-02-26T18:14:28.968Z,99537.06
2023-02-26T18:17:00.337Z,99535.56
2023-02-26T18:19:32.152Z,99537.06
2023-02-26T18:22:05.187Z,99545.31
2023-02-26T18:24:37.386Z,99546.66
2023-02-26T18:27:09.057Z,99549.63
2023-02-26T18:29:40.171Z,99549.47
2023-02-26T18:32:15.718Z,99552.41
2023-02-26T18:34:48.201Z,99555.56
2023-02-26T18:37:26.554Z,99559.19
2023-02-26T18:39:56.801Z,99562.78
2023-02-26T18:42:30.574Z,99569.22
2023-02-26T18:45:00.996Z,99561.50
2023-02-26T18:47:31.051Z,99570.38
2023-02-26T18:50:01.036Z,99576.97
2023-02-26T18:52:33.372Z,99575.00
2023-02-26T18:55:04.466Z,99575.69
2023-02-26T18:57:35.855Z,99583.56
2023-02-26T19:00:09.483Z,99587.38
2023-02-26T19:02:39.710Z,99590.84
2023-02-26T19:05:13.979Z,99596.81
2023-02-26T19:07:49.174Z,99592.84
2023-02-26T19:10:20.874Z,99599.41
2023-02-26T19:12:52.084Z,99614.25
2023-02-26T19:15:25.190Z,99609.50
2023-02-26T19:17:56.071Z,99607.69
2023-02-26T19:20:28.029Z,99616.59
2023-02-26T19:23:02.135Z,99616.59
2023-02-26T19:25:34.268Z,99612.66
2023-02-26T19:28:05.399Z,99620.91
2023-02-26T19:30:36.814Z,99626.50
2023-02-26T19:33:09.304Z,99624.50
2023-02-26T19:35:41.997Z,99627.44
2023-02-26T19:38:18.344Z,99632.34
2023-02-26T19:40:51.172Z,99629.34
2023-02-26T19:43:23.934Z,99644.09
2023-02-26T19:45:57.509Z,99639.44
2023-02-26T19:48:30.072Z,99640.00
2023-02-26T19:51:02.021Z,99651.47
2023-02-26T19:53:36.522Z,99646.88
2023-02-26T19:56:10.248Z,99650.69
2023-02-26T19:58:44.816Z,99658.41
2023-02-26T20:01:17.235Z,99662.28
2023-02-26T20:03:52.074Z,99669.75
2023-02-26T20:06:26.336Z,99657.50
2023-02-26T20:09:01.994Z,99667.44
2023-02-26T20:11:33.125Z,99676.25
2023-02-26T20:14:03.997Z,99678.94
2023-02-26T20:16:35.332Z,99683.94
2023-02-26T20:19:05.927Z,99690.63
2023-02-26T20:21:36.460Z,99692.22
2023-02-26T20:24:09.593Z,99698.91
2023-02-26T20:26:40.616Z,99702.97
2023-02-26T20:29:11.508Z,99697.88
2023-02-26T20:31:42.009Z,99696.94
2023-02-26T20:34:12.484Z,99708.69
2023-02-26T20:36:48.352Z,99708.63
2023-02-26T20:39:21.198Z,99711.41
2023-02-26T20:41:51.081Z,99709.44
2023-02-26T20:44:20.686Z,99707.41
2023-02-26T20:46:50.215Z,99718.34
2023-02-26T20:49:20.197Z,99717.03
2023-02-26T20:51:50.788Z,99712.47
2023-02-26T20:54:23.023Z,99723.75
2023-02-26T20:56:52.979Z,99719.44
2023-02-26T20:59:23.413Z,99712.59
2023-02-26T21:01:53.988Z,99721.00
2023-02-26T21:04:22.938Z,99726.38
2023-02-26T21:06:51.979Z,99724.34
2023-02-26T21:09:22.188Z,99727.22
2023-02-26T21:11:52.566Z,99733.34
2023-02-26T21:14:21.277Z,99731.94
2023-02-26T21:16:50.727Z,99733.78
2023-02-26T21:19:20.204Z,99737.75
2023-02-26T21:21:48.894Z,99738.72
2023-02-26T21:24:17.550Z,99748.00
2023-02-26T21:26:47.919Z,99747.38
2023-02-26T21:29:16.615Z,99752.72
2023-02-26T21:34:34.426Z,99756.94
2023-02-26T21:37:03.530Z,99773.56
2023-02-26T21:39:31.979Z,99767.09
2023-02-26T21:42:02.741Z,99768.75
2023-02-26T21:44:32.018Z,99762.44
2023-02-26T21:47:00.076Z,99770.84
2023-02-26T21:49:31.167Z,99765.75
2023-02-26T21:54:37.368Z,99763.78
2023-02-26T21:57:04.957Z,99765.53
2023-02-26T21:59:33.867Z,99758.66
2023-02-26T22:02:03.444Z,99760.78
2023-02-26T22:04:33.916Z,99758.84
2023-02-26T22:07:02.781Z,99763.19
2023-02-26T22:09:31.718Z,99774.75
2023-02-26T22:12:02.252Z,99764.53
2023-02-26T22:14:31.076Z,99767.31
2023-02-26T22:16:59.890Z,99780.59
2023-02-26T22:19:28.820Z,99767.53
2023-02-26T22:21:57.680Z,99779.19
2023-02-26T22:24:26.856Z,99771.00
2023-02-26T22:26:55.680Z,99778.16
2023-02-26T22:29:26.212Z,99776.69
2023-02-26T22:31:56.733Z,99780.44
2023-02-26T22:34:25.632Z,99787.13
2023-02-26T22:36:54.288Z,99788.22
2023-02-26T22:39:23.059Z,99787.53
2023-02-26T22:41:51.876Z,99787.13
2023-02-26T22:44:20.647Z,99786.88
2023-02-26T22:46:50.708Z,99789.75
2023-02-26T22:49:19.840Z,99789.44
2023-02-26T22:51:49.246Z,99791.09
2023-02-26T22:54:17.941Z,99794.69
2023-02-26T22:56:46.758Z,99798.00
2023-02-26T22:59:15.485Z,99804.50
2023-02-26T23:01:44.505Z,99794.38
2023-02-26T23:04:14.794Z,99797.81
2023-02-26T23:06:43.549Z,99802.03
2023-02-26T23:09:12.205Z,99796.66
2023-02-26T23:11:41.179Z,99797.25
2023-02-26T23:14:10.109Z,99794.19
2023-02-26T23:16:38.874Z,99801.09
2023-02-26T23:19:07.651Z,99804.16
2023-02-26T23:21:37.984Z,99801.63
2023-02-26T23:24:07.163Z,99795.84
2023-02-26T23:26:35.894Z,99793.53
2023-02-26T23:29:06.386Z,99790.34
2023-02-26T23:31:35.221Z,99792.59
2023-02-26T23:34:04.785Z,99795.06
2023-02-26T23:36:33.912Z,99801.84
2023-02-26T23:39:04.047Z,99802.00
2023-02-26T23:41:32.846Z,99806.41
2023-02-26T23:44:01.733Z,99816.97
2023-02-26T23:46:30.394Z,99809.50
2023-02-26T23:48:59.064Z,99815.59
2023-02-26T23:51:28.072Z,99815.00
2023-02-26T23:53:56.853Z,99813.09
2023-02-26T23:56:26.950Z,99815.41
2023-02-26T23:58:55.687Z,99816.38
